createdAt,value
2019-05-25T00:01:15.006Z,13.38
2019-05-25T00:03:45.330Z,13.48
2019-05-25T00:06:15.209Z,15.23
2019-05-25T00:08:45.058Z,14.33
2019-05-25T00:11:14.994Z,15.53
2019-05-25T00:13:44.866Z,14.33
2019-05-25T00:16:14.722Z,13.68
2019-05-25T00:18:44.578Z,17.45
2019-05-25T00:21:14.447Z,13.60
2019-05-25T00:23:44.314Z,13.53
2019-05-25T00:26:14.256Z,18.17
2019-05-25T00:28:44.125Z,15.20
2019-05-25T00:31:14.302Z,13.18
2019-05-25T00:33:44.219Z,15.23
2019-05-25T00:36:14.161Z,14.38
2019-05-25T00:38:44.082Z,13.48
2019-05-25T00:41:13.940Z,15.55
2019-05-25T00:43:43.792Z,15.05
2019-05-25T00:46:13.655Z,16.00
2019-05-25T00:48:43.898Z,13.08
2019-05-25T00:51:13.758Z,11.70
2019-05-25T00:53:43.604Z,11.70
2019-05-25T00:56:13.461Z,11.78
2019-05-25T00:58:43.666Z,14.78
2019-05-25T01:01:13.527Z,13.95
2019-05-25T01:03:43.379Z,18.67
2019-05-25T01:06:13.233Z,14.47
2019-05-25T01:08:43.100Z,17.73
2019-05-25T01:11:12.950Z,13.43
2019-05-25T01:13:42.812Z,14.15
2019-05-25T01:16:12.680Z,14.05
2019-05-25T01:18:42.533Z,12.55
2019-05-25T01:21:12.402Z,15.40
2019-05-25T01:23:42.262Z,16.95
2019-05-25T01:26:12.125Z,18.45
2019-05-25T01:28:42.345Z,18.62
2019-05-25T01:31:12.225Z,17.23
2019-05-25T01:33:42.096Z,21.90
2019-05-25T01:36:11.978Z,13.70
2019-05-25T01:38:42.208Z,19.48
2019-05-25T01:41:12.421Z,19.52
2019-05-25T01:43:42.648Z,17.57
2019-05-25T01:46:12.521Z,14.43
2019-05-25T01:48:42.465Z,15.50
2019-05-25T01:51:12.301Z,11.33
2019-05-25T01:53:42.174Z,12.60
2019-05-25T01:56:12.423Z,15.80
2019-05-25T01:58:42.295Z,15.25
2019-05-25T02:01:12.169Z,11.78
2019-05-25T02:03:42.021Z,14.58
2019-05-25T02:06:11.884Z,12.00
2019-05-25T02:08:41.754Z,17.00
2019-05-25T02:11:11.609Z,15.13
2019-05-25T02:13:41.479Z,14.87
2019-05-25T02:16:11.339Z,15.20
2019-05-25T02:18:45.014Z,16.52
2019-05-25T02:21:13.049Z,18.35
2019-05-25T02:23:42.901Z,15.32
2019-05-25T02:26:12.797Z,14.33
2019-05-25T02:28:42.656Z,15.53
2019-05-25T02:31:12.521Z,15.70
2019-05-25T02:33:42.401Z,20.45
2019-05-25T02:36:12.260Z,16.35
2019-05-25T02:38:42.115Z,17.42
2019-05-25T02:41:12.334Z,16.00
2019-05-25T02:43:42.212Z,16.70
2019-05-25T02:46:12.075Z,21.15
2019-05-25T02:48:41.924Z,25.92
2019-05-25T02:51:12.186Z,19.87
2019-05-25T02:53:43.087Z,20.77
2019-05-25T02:56:12.937Z,20.68
2019-05-25T02:58:43.107Z,23.77
2019-05-25T03:01:12.975Z,21.30
2019-05-25T03:03:42.822Z,18.60
2019-05-25T03:06:12.893Z,17.57
2019-05-25T03:08:43.249Z,19.20
2019-05-25T03:11:13.110Z,17.48
2019-05-25T03:13:43.366Z,18.45
2019-05-25T03:16:13.253Z,20.80
2019-05-25T03:18:43.110Z,20.65
2019-05-25T03:21:13.058Z,19.80
2019-05-25T03:23:42.922Z,19.50
2019-05-25T03:26:12.776Z,19.95
2019-05-25T03:28:42.661Z,17.37
2019-05-25T03:31:12.515Z,18.55
2019-05-25T03:33:42.415Z,17.60
2019-05-25T03:36:12.706Z,15.32
2019-05-25T03:38:42.932Z,19.35
2019-05-25T03:41:12.781Z,18.90
2019-05-25T03:43:42.642Z,19.07
2019-05-25T03:46:12.885Z,20.30
2019-05-25T03:48:42.733Z,17.12
2019-05-25T03:51:13.024Z,16.70
2019-05-25T03:53:43.859Z,18.12
2019-05-25T03:56:13.746Z,17.10
2019-05-25T03:58:43.598Z,16.55
2019-05-25T04:01:13.813Z,16.00
2019-05-25T04:03:43.737Z,15.80
2019-05-25T04:06:13.598Z,17.57
2019-05-25T04:08:43.477Z,17.25
2019-05-25T04:11:13.344Z,16.87
2019-05-25T04:13:43.280Z,17.98
2019-05-25T04:16:13.139Z,16.37
2019-05-25T04:18:42.993Z,16.05
2019-05-25T04:21:13.222Z,18.17
2019-05-25T04:23:43.084Z,15.65
2019-05-25T04:26:21.968Z,22.52
2019-05-25T04:28:44.436Z,16.70
2019-05-25T04:31:15.762Z,16.87
2019-05-25T04:33:45.636Z,16.85
2019-05-25T04:36:15.495Z,19.80
2019-05-25T04:38:45.377Z,20.40
2019-05-25T04:41:15.221Z,18.23
2019-05-25T04:43:45.420Z,18.02
2019-05-25T04:46:15.278Z,14.33
2019-05-25T04:48:45.153Z,13.90
2019-05-25T04:51:15.375Z,14.73
2019-05-25T04:53:45.225Z,19.77
2019-05-25T04:56:15.108Z,22.80
2019-05-25T04:58:45.322Z,23.47
2019-05-25T05:01:15.566Z,22.77
2019-05-25T05:03:46.909Z,23.85
2019-05-25T05:06:16.766Z,24.85
2019-05-25T05:08:46.618Z,34.75
2019-05-25T05:11:16.474Z,31.90
2019-05-25T05:13:46.338Z,32.90
2019-05-25T05:16:16.566Z,33.92
2019-05-25T05:18:46.439Z,30.90
2019-05-25T05:21:16.284Z,36.42
2019-05-25T05:23:46.146Z,31.02
2019-05-25T05:26:16.338Z,30.75
2019-05-25T05:28:49.169Z,30.68
2019-05-25T05:31:23.576Z,35.68
2019-05-25T05:33:49.531Z,38.42
2019-05-25T05:36:19.782Z,34.43
2019-05-25T05:38:49.669Z,35.03
2019-05-25T05:41:19.531Z,34.73
2019-05-25T05:43:49.407Z,30.35
2019-05-25T05:46:19.284Z,36.68
2019-05-25T05:48:50.951Z,36.90
2019-05-25T05:51:21.068Z,26.62
2019-05-25T05:53:55.370Z,35.58
2019-05-25T05:56:25.235Z,36.55
2019-05-25T05:58:55.099Z,27.62
2019-05-25T06:01:25.389Z,30.85
2019-05-25T06:03:55.255Z,25.08
2019-05-25T06:06:25.528Z,34.03
2019-05-25T06:08:55.424Z,31.87
2019-05-25T06:11:25.662Z,40.52
2019-05-25T06:13:55.518Z,36.13
2019-05-25T06:16:25.816Z,32.65
2019-05-25T06:18:55.645Z,41.80
2019-05-25T06:21:25.527Z,37.20
2019-05-25T06:23:55.391Z,28.25
2019-05-25T06:26:25.238Z,14.68
2019-05-25T06:28:56.182Z,14.83
2019-05-25T06:31:26.036Z,20.97
2019-05-25T06:33:55.891Z,22.02
2019-05-25T06:36:25.750Z,20.77
2019-05-25T06:38:55.608Z,29.25
2019-05-25T06:41:25.471Z,22.73
2019-05-25T06:43:55.342Z,19.98
2019-05-25T06:46:25.586Z,20.68
2019-05-25T06:48:55.806Z,19.45
2019-05-25T06:51:25.690Z,19.90
2019-05-25T06:53:55.564Z,20.10
2019-05-25T06:56:25.722Z,21.93
2019-05-25T06:58:55.658Z,24.43
2019-05-25T07:01:25.513Z,20.97
2019-05-25T07:03:55.384Z,17.80
2019-05-25T07:06:25.234Z,17.23
2019-05-25T07:08:55.441Z,14.20
2019-05-25T07:11:25.657Z,13.72
2019-05-25T07:13:55.509Z,15.13
2019-05-25T07:16:25.705Z,15.95
2019-05-25T07:18:55.581Z,12.50
2019-05-25T07:21:25.451Z,8.85
2019-05-25T07:23:55.638Z,17.95
2019-05-25T07:26:25.495Z,16.02
2019-05-25T07:28:55.341Z,14.25
2019-05-25T07:31:25.479Z,9.18
2019-05-25T07:33:55.718Z,4.72
2019-05-25T07:36:25.934Z,8.40
2019-05-25T07:38:56.173Z,11.50
2019-05-25T07:41:26.425Z,4.17
2019-05-25T07:43:56.267Z,5.87
2019-05-25T07:46:26.123Z,3.17
2019-05-25T07:48:56.046Z,4.37
2019-05-25T07:51:25.893Z,6.92
2019-05-25T07:53:55.806Z,7.83
2019-05-25T07:56:25.801Z,4.62
2019-05-25T07:58:55.942Z,3.92
2019-05-25T08:01:25.814Z,6.15
2019-05-25T08:03:56.038Z,7.33
2019-05-25T08:06:26.195Z,5.95
2019-05-25T08:08:56.362Z,4.87
2019-05-25T08:11:26.207Z,3.55
2019-05-25T08:13:56.069Z,2.40
2019-05-25T08:16:25.919Z,12.70
2019-05-25T08:18:55.777Z,5.40
2019-05-25T08:21:25.631Z,6.10
2019-05-25T08:23:55.478Z,5.17
2019-05-25T08:26:25.660Z,5.53
2019-05-25T08:28:55.897Z,3.20
2019-05-25T08:31:25.733Z,5.62
2019-05-25T08:33:56.649Z,3.40
2019-05-25T08:36:29.620Z,1.70
2019-05-25T08:38:57.977Z,3.98
2019-05-25T08:41:28.226Z,1.30
2019-05-25T08:43:58.099Z,2.20
2019-05-25T08:46:28.009Z,2.35
2019-05-25T08:48:57.870Z,1.65
2019-05-25T08:51:28.090Z,2.47
2019-05-25T08:53:57.985Z,2.70
2019-05-25T08:56:28.233Z,5.15
2019-05-25T08:58:58.394Z,1.90
2019-05-25T09:01:28.705Z,4.50
2019-05-25T09:03:58.550Z,2.85
2019-05-25T09:06:28.829Z,15.00
2019-05-25T09:08:59.037Z,2.87
2019-05-25T09:11:29.314Z,4.00
2019-05-25T09:13:59.145Z,4.50
2019-05-25T09:16:29.029Z,2.12
2019-05-25T09:18:59.198Z,1.92
2019-05-25T09:21:29.425Z,2.52
2019-05-25T09:23:59.268Z,3.62
2019-05-25T09:26:29.126Z,1.82
2019-05-25T09:29:04.418Z,1.67
2019-05-25T09:31:30.470Z,2.60
2019-05-25T09:34:00.742Z,2.75
2019-05-25T09:36:30.890Z,2.60
2019-05-25T09:39:01.814Z,2.50
2019-05-25T09:41:32.126Z,2.65
2019-05-25T09:44:01.981Z,4.50
2019-05-25T09:46:31.850Z,2.85
2019-05-25T09:49:02.007Z,2.22
2019-05-25T09:51:32.309Z,3.72
2019-05-25T09:54:02.146Z,5.15
2019-05-25T09:56:32.321Z,2.10
2019-05-25T09:59:02.549Z,2.95
2019-05-25T10:01:32.403Z,3.40
2019-05-25T10:04:02.560Z,2.20
2019-05-25T10:06:32.806Z,9.00
2019-05-25T10:09:02.651Z,2.47
2019-05-25T10:11:32.585Z,4.60
2019-05-25T10:14:02.455Z,3.95
2019-05-25T10:16:32.680Z,2.65
2019-05-25T10:19:02.541Z,4.70
2019-05-25T10:21:32.378Z,3.15
2019-05-25T10:24:02.624Z,4.33
2019-05-25T10:26:32.472Z,4.25
2019-05-25T10:29:02.314Z,2.52
2019-05-25T10:31:32.153Z,2.87
2019-05-25T10:34:01.990Z,2.37
2019-05-25T10:36:31.871Z,2.90
2019-05-25T10:39:01.713Z,3.62
2019-05-25T10:41:31.667Z,2.90
2019-05-25T10:44:01.511Z,5.20
2019-05-25T10:46:31.380Z,4.65
2019-05-25T10:49:01.541Z,3.58
2019-05-25T10:51:31.677Z,4.45
2019-05-25T10:54:01.903Z,4.08
2019-05-25T10:56:31.765Z,3.55
2019-05-25T10:59:01.608Z,4.53
2019-05-25T11:01:31.441Z,3.70
2019-05-25T11:04:01.376Z,3.92
2019-05-25T11:06:34.741Z,3.75
2019-05-25T11:09:03.053Z,5.45
2019-05-25T11:11:32.895Z,4.25
2019-05-25T11:14:03.054Z,4.97
2019-05-25T11:16:33.290Z,4.12
2019-05-25T11:19:03.514Z,3.22
2019-05-25T11:21:33.358Z,3.02
2019-05-25T11:24:03.233Z,4.75
2019-05-25T11:26:33.077Z,4.35
2019-05-25T11:29:04.001Z,6.92
2019-05-25T11:31:34.189Z,4.28
2019-05-25T11:34:04.222Z,6.17
2019-05-25T11:36:35.001Z,3.70
2019-05-25T11:39:06.493Z,3.92
2019-05-25T11:41:36.334Z,5.20
2019-05-25T11:44:06.554Z,5.50
2019-05-25T11:46:36.411Z,5.62
2019-05-25T11:49:21.393Z,8.00
2019-05-25T11:51:37.738Z,5.87
2019-05-25T11:54:07.580Z,5.55
2019-05-25T11:56:37.421Z,6.03
2019-05-25T11:59:07.289Z,5.95
2019-05-25T12:01:38.193Z,4.08
2019-05-25T12:04:08.038Z,6.17
2019-05-25T12:06:37.885Z,4.35
2019-05-25T12:09:08.207Z,7.50
2019-05-25T12:11:38.382Z,4.37
2019-05-25T12:14:08.221Z,5.22
2019-05-25T12:16:38.426Z,7.22
2019-05-25T12:19:08.642Z,4.75
2019-05-25T12:21:38.867Z,7.45
2019-05-25T12:24:08.714Z,6.78
2019-05-25T12:26:38.557Z,5.45
2019-05-25T12:36:35.890Z,4.90
2019-05-25T12:44:05.009Z,5.62
2019-05-25T12:46:35.451Z,6.62
2019-05-25T12:49:05.300Z,4.33
2019-05-25T12:51:35.468Z,4.65
2019-05-25T12:54:05.314Z,6.53
2019-05-25T12:56:35.528Z,3.83
2019-05-25T12:59:05.757Z,5.85
2019-05-25T13:01:35.606Z,7.33
2019-05-25T13:04:05.544Z,5.05
2019-05-25T13:06:35.409Z,5.42
2019-05-25T13:09:06.996Z,4.62
2019-05-25T13:11:36.843Z,5.60
2019-05-25T13:14:14.492Z,4.97
2019-05-25T13:16:38.944Z,5.22
2019-05-25T13:19:09.170Z,3.50
2019-05-25T13:21:39.043Z,3.22
2019-05-25T13:24:08.867Z,8.10
2019-05-25T13:26:38.752Z,4.40
2019-05-25T13:29:08.606Z,4.45
2019-05-25T13:31:38.444Z,9.33
2019-05-25T13:34:08.311Z,6.22
2019-05-25T13:36:38.193Z,6.15
2019-05-25T13:39:08.030Z,5.97
2019-05-25T13:41:38.308Z,8.03
2019-05-25T13:44:08.463Z,5.92
2019-05-25T13:46:38.734Z,6.42
2019-05-25T13:49:08.955Z,4.75
2019-05-25T13:51:38.806Z,6.67
2019-05-25T13:54:08.648Z,3.70
2019-05-25T13:56:38.497Z,9.28
2019-05-25T13:59:08.357Z,7.03
2019-05-25T14:01:39.170Z,6.83
2019-05-25T14:04:09.035Z,5.87
2019-05-25T14:06:39.287Z,5.15
2019-05-25T14:09:09.501Z,6.95
2019-05-25T14:11:39.763Z,6.97
2019-05-25T14:14:09.641Z,5.05
2019-05-25T14:16:39.454Z,8.33
2019-05-25T14:19:09.681Z,6.15
2019-05-25T14:21:39.528Z,5.08
2019-05-25T14:24:09.838Z,11.05
2019-05-25T14:26:40.037Z,11.10
2019-05-25T14:29:09.892Z,16.20
2019-05-25T14:31:45.533Z,10.50
2019-05-25T14:34:12.993Z,9.25
2019-05-25T14:36:43.175Z,5.97
2019-05-25T14:39:13.399Z,3.30
2019-05-25T14:41:43.244Z,5.90
2019-05-25T14:44:13.431Z,4.17
2019-05-25T14:46:43.768Z,4.40
2019-05-25T14:49:13.982Z,3.72
2019-05-25T14:51:43.822Z,6.10
2019-05-25T14:54:14.115Z,7.00
2019-05-25T14:56:43.966Z,8.20
2019-05-25T14:59:14.145Z,7.70
2019-05-25T15:01:44.015Z,7.80
2019-05-25T15:04:14.184Z,8.93
2019-05-25T15:06:44.030Z,9.58
2019-05-25T15:09:14.224Z,6.20
2019-05-25T15:11:44.380Z,6.62
2019-05-25T15:14:15.209Z,4.80
2019-05-25T15:16:45.145Z,5.42
2019-05-25T15:19:15.021Z,7.60
2019-05-25T15:21:44.960Z,7.03
2019-05-25T15:24:15.009Z,6.80
2019-05-25T15:26:45.270Z,5.33
2019-05-25T15:29:15.113Z,5.72
2019-05-25T15:31:44.962Z,9.98
2019-05-25T15:34:14.805Z,10.05
2019-05-25T15:36:44.659Z,8.63
2019-05-25T15:39:14.855Z,7.15
2019-05-25T15:41:45.067Z,6.67
2019-05-25T15:44:14.896Z,6.35
2019-05-25T15:46:44.855Z,6.83
2019-05-25T15:49:15.220Z,7.50
2019-05-25T15:51:45.139Z,7.12
2019-05-25T15:54:16.046Z,4.85
2019-05-25T15:56:46.308Z,5.65
2019-05-25T15:59:16.150Z,5.25
2019-05-25T16:01:45.989Z,7.87
2019-05-25T16:04:15.915Z,6.03
2019-05-25T16:06:46.155Z,6.37
2019-05-25T16:09:16.074Z,4.37
2019-05-25T16:11:46.296Z,5.20
2019-05-25T16:14:16.133Z,4.40
2019-05-25T16:16:45.978Z,5.60
2019-05-25T16:19:15.849Z,4.20
2019-05-25T16:21:45.700Z,5.47
2019-05-25T16:24:15.965Z,4.65
2019-05-25T16:26:46.737Z,3.17
2019-05-25T16:29:16.772Z,5.25
2019-05-25T16:31:46.615Z,5.35
2019-05-25T16:34:16.868Z,4.55
2019-05-25T16:36:46.737Z,4.65
2019-05-25T16:39:16.661Z,3.58
2019-05-25T16:41:46.521Z,4.87
2019-05-25T16:44:16.450Z,7.92
2019-05-25T16:46:46.296Z,4.22
2019-05-25T16:49:16.189Z,2.15
2019-05-25T16:51:46.401Z,4.80
2019-05-25T16:54:16.581Z,6.62
2019-05-25T16:56:46.505Z,7.25
2019-05-25T16:59:16.718Z,5.78
2019-05-25T17:01:48.619Z,4.92
2019-05-25T17:04:18.038Z,2.67
2019-05-25T17:06:47.881Z,3.33
2019-05-25T17:09:17.741Z,6.25
2019-05-25T17:11:47.925Z,2.95
2019-05-25T17:14:18.173Z,3.42
2019-05-25T17:16:48.019Z,5.08
2019-05-25T17:19:18.191Z,4.35
2019-05-25T17:21:48.039Z,7.62
2019-05-25T17:24:17.882Z,7.42
2019-05-25T17:26:47.726Z,3.50
2019-05-25T17:29:17.586Z,2.85
2019-05-25T17:31:47.764Z,4.85
2019-05-25T17:34:17.986Z,4.97
2019-05-25T17:36:47.826Z,12.15
2019-05-25T17:39:18.008Z,3.42
2019-05-25T17:41:48.142Z,8.98
2019-05-25T17:44:17.983Z,3.92
2019-05-25T17:46:47.845Z,4.47
2019-05-25T17:49:17.687Z,9.75
2019-05-25T17:51:47.526Z,6.08
2019-05-25T17:54:17.370Z,7.15
2019-05-25T17:56:47.636Z,10.08
2019-05-25T17:59:17.490Z,17.67
2019-05-25T18:01:47.781Z,11.83
2019-05-25T18:04:17.703Z,13.62
2019-05-25T18:06:47.573Z,16.45
2019-05-25T18:09:17.822Z,18.15
2019-05-25T18:11:47.878Z,19.67
2019-05-25T18:14:17.729Z,18.95
2019-05-25T18:16:47.595Z,20.00
2019-05-25T18:19:17.901Z,20.80
2019-05-25T18:21:48.114Z,27.35
2019-05-25T18:24:18.356Z,25.50
2019-05-25T18:26:48.221Z,24.95
2019-05-25T18:29:18.470Z,23.45
2019-05-25T18:31:48.351Z,13.80
2019-05-25T18:34:22.180Z,18.65
2019-05-25T18:36:49.682Z,29.63
2019-05-25T18:39:19.542Z,29.30
2019-05-25T18:41:49.402Z,30.62
2019-05-25T18:44:19.254Z,13.95
2019-05-25T18:46:49.110Z,16.25
2019-05-25T18:49:19.365Z,10.10
2019-05-25T18:51:49.347Z,11.22
2019-05-25T18:54:19.666Z,15.58
2019-05-25T18:56:49.547Z,11.50
2019-05-25T18:59:19.808Z,14.83
2019-05-25T19:01:49.655Z,16.27
2019-05-25T19:04:19.946Z,12.43
2019-05-25T19:06:50.163Z,15.53
2019-05-25T19:09:20.013Z,16.12
2019-05-25T19:11:49.869Z,15.28
2019-05-25T19:14:19.730Z,14.53
2019-05-25T19:16:49.941Z,13.98
2019-05-25T19:19:19.818Z,14.10
2019-05-25T19:21:49.979Z,18.85
2019-05-25T19:24:19.829Z,15.50
2019-05-25T19:26:50.043Z,12.13
2019-05-25T19:29:19.891Z,15.05
2019-05-25T19:31:49.763Z,13.83
2019-05-25T19:34:19.619Z,15.95
2019-05-25T19:36:49.472Z,12.90
2019-05-25T19:39:19.327Z,10.80
2019-05-25T19:41:49.178Z,11.33
2019-05-25T19:44:19.109Z,8.85
2019-05-25T19:46:48.966Z,6.08
2019-05-25T19:49:18.815Z,7.03
2019-05-25T19:51:48.681Z,6.15
2019-05-25T19:54:18.534Z,9.43
2019-05-25T19:56:48.795Z,5.70
2019-05-25T19:59:18.637Z,8.25
2019-05-25T20:06:46.895Z,7.15
2019-05-25T20:11:46.095Z,7.72
2019-05-25T20:14:15.941Z,4.92
2019-05-25T20:16:45.806Z,7.05
2019-05-25T20:19:15.651Z,3.98
2019-05-25T20:21:46.004Z,5.50
2019-05-25T20:36:42.545Z,4.22
2019-05-25T20:39:12.415Z,5.08
2019-05-25T20:41:42.254Z,2.95
2019-05-25T20:44:12.120Z,6.30
2019-05-25T20:46:42.395Z,4.17
2019-05-25T20:49:12.231Z,3.75
2019-05-25T20:51:42.146Z,6.22
2019-05-25T20:54:11.991Z,3.70
2019-05-25T20:56:41.908Z,5.35
2019-05-25T20:59:11.747Z,4.80
2019-05-25T21:01:42.057Z,4.03
2019-05-25T21:04:12.374Z,4.60
2019-05-25T21:06:42.608Z,5.60
2019-05-25T21:09:12.452Z,3.87
2019-05-25T21:11:42.323Z,7.22
2019-05-25T21:14:12.166Z,4.70
2019-05-25T21:16:42.017Z,4.35
